Time;durP1;ratioP1;P1;durP2;ratioP2;P2;SDS_P1;SDS_P2;PMS_P1;PMS_P2;Temp;Humidity;BMP_temperature;BMP_pressure;BME280_temperature;BME280_humidity;BME280_pressure;Samples;Min_cycle;Max_cycle;Signal;HPM_P1;HPM_P2
2024/03/05 00:00:57;;;;;;;19.37;15.77;;;11.30;99.90;;;;;;5027417;28;20205;-59
2024/03/05 00:03:24;;;;;;;19.73;15.97;;;11.30;99.90;;;;;;5032336;28;20233;-59
2024/03/05 00:05:51;;;;;;;19.90;14.60;;;11.20;99.90;;;;;;5033655;28;20200;-59
2024/03/05 00:08:18;;;;;;;17.57;14.67;;;11.10;99.90;;;;;;5029772;28;20194;-59
2024/03/05 00:10:46;;;;;;;21.43;16.27;;;11.10;99.90;;;;;;5033411;28;20216;-59
2024/03/05 00:13:13;;;;;;;23.73;15.93;;;11.10;99.90;;;;;;5031178;28;20227;-60
2024/03/05 00:15:40;;;;;;;21.97;16.07;;;11.10;99.90;;;;;;5031072;28;20207;-59
2024/03/05 00:18:07;;;;;;;21.13;14.80;;;11.00;99.90;;;;;;5032170;28;20206;-59
2024/03/05 00:20:34;;;;;;;18.57;14.87;;;11.10;99.90;;;;;;5027459;28;20221;-59
2024/03/05 00:23:02;;;;;;;17.27;14.57;;;11.00;99.90;;;;;;5030035;28;20198;-59
2024/03/05 00:25:29;;;;;;;18.40;15.20;;;11.00;99.90;;;;;;5029590;28;20222;-59
2024/03/05 00:27:56;;;;;;;24.83;15.27;;;11.00;99.90;;;;;;5030549;28;20206;-59
2024/03/05 00:30:23;;;;;;;17.10;13.73;;;11.00;99.90;;;;;;5029030;28;20219;-60
2024/03/05 00:32:50;;;;;;;22.70;15.03;;;10.90;99.90;;;;;;5028634;28;20624;-59
2024/03/05 00:35:17;;;;;;;17.93;14.03;;;10.90;99.90;;;;;;5032593;28;20322;-59
2024/03/05 00:37:44;;;;;;;23.53;14.33;;;10.90;99.90;;;;;;5031045;28;20199;-59
2024/03/05 00:40:12;;;;;;;19.27;13.20;;;10.80;99.90;;;;;;5032024;28;20673;-59
2024/03/05 00:42:39;;;;;;;16.57;13.23;;;10.80;99.90;;;;;;5031765;28;20280;-59
2024/03/05 00:45:07;;;;;;;18.70;13.30;;;10.80;99.90;;;;;;5027585;28;20203;-59
2024/03/05 00:47:35;;;;;;;20.90;14.27;;;10.80;99.90;;;;;;5031481;28;20211;-59
2024/03/05 00:50:07;;;;;;;16.80;12.90;;;10.70;99.90;;;;;;5032401;28;20471;-59
2024/03/05 00:52:34;;;;;;;19.40;12.67;;;10.70;99.90;;;;;;5032574;28;20229;-59
2024/03/05 00:55:02;;;;;;;18.43;12.70;;;10.70;99.90;;;;;;5031451;28;20286;-60
2024/03/05 00:57:29;;;;;;;16.90;12.53;;;10.60;99.90;;;;;;5032636;28;20234;-59
2024/03/05 00:59:56;;;;;;;18.00;13.20;;;10.60;99.90;;;;;;5031528;28;20231;-59
2024/03/05 01:02:23;;;;;;;18.07;13.63;;;10.60;99.90;;;;;;5033113;28;20210;-59
2024/03/05 01:04:52;;;;;;;19.13;13.40;;;10.60;99.90;;;;;;5033309;28;20230;-59
2024/03/05 01:07:20;;;;;;;18.67;13.20;;;10.60;99.90;;;;;;5029419;28;20297;-59
2024/03/05 01:09:49;;;;;;;20.47;12.67;;;10.60;99.90;;;;;;5027114;28;20656;-59
2024/03/05 01:12:16;;;;;;;20.27;13.50;;;10.60;99.90;;;;;;5033323;28;20277;-59
2024/03/05 01:14:44;;;;;;;19.00;13.37;;;10.50;99.90;;;;;;5026901;28;20688;-59
2024/03/05 01:17:13;;;;;;;17.77;13.03;;;10.50;99.90;;;;;;5028525;28;20261;-59
2024/03/05 01:19:40;;;;;;;19.90;13.60;;;10.40;99.90;;;;;;5030492;28;20675;-59
2024/03/05 01:22:07;;;;;;;19.40;14.27;;;10.40;99.90;;;;;;5032198;28;20198;-59
2024/03/05 01:24:34;;;;;;;23.60;14.60;;;10.30;99.90;;;;;;5034059;28;20213;-59
2024/03/05 01:27:01;;;;;;;20.67;14.67;;;10.30;99.90;;;;;;5035137;28;20199;-59
2024/03/05 01:29:30;;;;;;;20.37;15.43;;;10.20;99.90;;;;;;5035267;28;20338;-59
2024/03/05 01:31:59;;;;;;;27.90;16.40;;;10.20;99.90;;;;;;5032990;28;20208;-59
2024/03/05 01:34:31;;;;;;;24.77;17.17;;;10.10;99.90;;;;;;5033529;28;20549;-59
2024/03/05 01:36:58;;;;;;;24.53;18.10;;;10.10;99.90;;;;;;5035042;28;20202;-59
2024/03/05 01:39:26;;;;;;;22.60;17.17;;;10.10;99.90;;;;;;5035484;28;20199;-59
2024/03/05 01:41:55;;;;;;;27.33;17.37;;;10.10;99.90;;;;;;5037859;28;20230;-60
2024/03/05 01:44:23;;;;;;;26.37;19.03;;;10.00;99.90;;;;;;5030404;28;20195;-59
2024/03/05 01:46:55;;;;;;;32.97;20.80;;;10.00;99.90;;;;;;5028573;28;20211;-59
2024/03/05 01:49:24;;;;;;;27.43;21.20;;;10.00;99.90;;;;;;5035617;28;20560;-59
2024/03/05 01:51:55;;;;;;;32.23;21.13;;;10.00;99.90;;;;;;5034375;28;20197;-59
2024/03/05 01:54:23;;;;;;;36.57;22.90;;;10.00;99.90;;;;;;5034409;28;20227;-59
2024/03/05 01:56:59;;;;;;;36.00;22.43;;;10.00;99.90;;;;;;5047175;28;20277;-60
2024/03/05 01:59:26;;;;;;;33.07;21.73;;;10.00;99.90;;;;;;5030276;28;20284;-59
2024/03/05 02:01:53;;;;;;;34.20;22.27;;;10.10;99.90;;;;;;5032363;28;20684;-59
2024/03/05 02:04:22;;;;;;;32.40;21.27;;;10.10;99.90;;;;;;5025867;28;20715;-59
2024/03/05 02:06:53;;;;;;;31.37;19.53;;;10.10;99.90;;;;;;5033918;28;20203;-59
2024/03/05 02:09:21;;;;;;;28.17;18.60;;;10.10;99.90;;;;;;5033258;28;20198;-59
2024/03/05 02:11:49;;;;;;;32.77;19.73;;;10.20;99.90;;;;;;5031134;28;20646;-59
2024/03/05 02:14:29;;;;;;;29.00;18.53;;;10.20;99.90;;;;;;5033590;28;20543;-60
2024/03/05 02:16:59;;;;;;;24.43;17.60;;;10.20;99.90;;;;;;5034770;28;20260;-60
2024/03/05 02:19:28;;;;;;;28.43;18.77;;;10.30;99.90;;;;;;5034821;28;20640;-60
2024/03/05 02:22:02;;;;;;;29.37;18.83;;;10.30;99.90;;;;;;5033210;28;20548;-60
2024/03/05 02:24:30;;;;;;;26.73;19.13;;;10.30;99.90;;;;;;5033268;28;20202;-60
2024/03/05 02:27:01;;;;;;;33.23;19.83;;;10.30;99.90;;;;;;5029816;28;20239;-60
2024/03/05 02:29:31;;;;;;;25.83;19.13;;;10.30;99.90;;;;;;5031996;28;20196;-60
2024/03/05 02:31:58;;;;;;;23.43;17.37;;;10.30;99.90;;;;;;5035108;28;20225;-60
2024/03/05 02:34:25;;;;;;;28.93;17.80;;;10.30;99.90;;;;;;5031909;28;20243;-60
2024/03/05 02:36:53;;;;;;;23.70;18.10;;;10.30;99.90;;;;;;5033375;28;20202;-60
2024/03/05 02:39:20;;;;;;;24.87;18.53;;;10.30;99.90;;;;;;5032477;28;20214;-60
2024/03/05 02:41:47;;;;;;;32.80;18.53;;;10.20;99.90;;;;;;5029097;28;20199;-60
2024/03/05 02:44:16;;;;;;;25.37;17.80;;;10.20;99.90;;;;;;5033312;28;20206;-60
2024/03/05 02:46:43;;;;;;;30.60;18.83;;;10.20;99.90;;;;;;5030858;28;20521;-60
2024/03/05 02:49:13;;;;;;;25.97;17.93;;;10.10;99.90;;;;;;5032597;28;20229;-60
2024/03/05 02:51:41;;;;;;;25.83;17.93;;;10.00;99.90;;;;;;5031122;28;20729;-60
2024/03/05 02:54:08;;;;;;;26.13;17.73;;;10.00;99.90;;;;;;5030466;28;20211;-60
2024/03/05 02:56:35;;;;;;;26.73;16.40;;;9.90;99.90;;;;;;5033854;28;20217;-60
2024/03/05 02:59:02;;;;;;;26.50;17.13;;;9.90;99.90;;;;;;5031786;28;20213;-60
2024/03/05 03:01:29;;;;;;;26.37;16.80;;;9.90;99.90;;;;;;5032375;28;20211;-60
2024/03/05 03:03:56;;;;;;;26.50;15.83;;;9.80;99.90;;;;;;5032645;28;20195;-60
2024/03/05 03:06:23;;;;;;;20.60;15.93;;;9.80;99.90;;;;;;5031136;28;20264;-60
2024/03/05 03:08:50;;;;;;;24.17;14.93;;;9.80;99.90;;;;;;5034311;28;20208;-60
2024/03/05 03:11:18;;;;;;;19.63;13.10;;;9.80;99.90;;;;;;5032214;28;20568;-60
2024/03/05 03:13:46;;;;;;;25.33;14.77;;;9.70;99.90;;;;;;5033871;28;20313;-60
2024/03/05 03:16:14;;;;;;;23.33;13.87;;;9.70;99.90;;;;;;5033392;28;20211;-60
2024/03/05 03:18:43;;;;;;;21.30;14.37;;;9.70;99.90;;;;;;5032315;28;20260;-60
2024/03/05 03:21:11;;;;;;;19.77;12.77;;;9.60;99.90;;;;;;5034503;28;20229;-60
2024/03/05 03:23:38;;;;;;;19.53;13.83;;;9.60;99.90;;;;;;5033656;28;20721;-59
2024/03/05 03:26:06;;;;;;;21.73;13.10;;;9.50;99.90;;;;;;5031166;28;20201;-58
2024/03/05 03:28:34;;;;;;;17.47;13.47;;;9.50;99.90;;;;;;5030695;28;20214;-60
2024/03/05 03:31:01;;;;;;;21.20;13.87;;;9.50;99.90;;;;;;5029580;28;20222;-59
2024/03/05 03:33:29;;;;;;;18.27;13.40;;;9.50;99.90;;;;;;5031406;28;20200;-61
2024/03/05 03:35:56;;;;;;;18.83;14.23;;;9.50;99.90;;;;;;5014860;28;20236;-59
2024/03/05 03:38:25;;;;;;;16.97;13.87;;;9.50;99.90;;;;;;5028494;28;20519;-59
2024/03/05 03:40:52;;;;;;;25.20;14.73;;;9.50;99.90;;;;;;5032969;28;20213;-59
2024/03/05 03:43:21;;;;;;;22.03;14.53;;;9.50;99.90;;;;;;5016526;28;20241;-59
2024/03/05 03:45:50;;;;;;;22.30;15.17;;;9.40;99.90;;;;;;5032858;28;20223;-59
2024/03/05 03:48:18;;;;;;;22.23;15.80;;;9.40;99.90;;;;;;5028877;28;20220;-59
2024/03/05 03:50:47;;;;;;;23.03;16.03;;;9.30;99.90;;;;;;5042177;28;20310;-60
2024/03/05 03:53:15;;;;;;;27.23;16.27;;;9.30;99.90;;;;;;5033632;28;20715;-60
2024/03/05 03:55:43;;;;;;;22.60;16.47;;;9.40;99.90;;;;;;5030947;28;20213;-60
2024/03/05 03:58:11;;;;;;;25.73;15.27;;;9.40;99.90;;;;;;5031615;28;20194;-60
2024/03/05 04:00:40;;;;;;;23.63;15.87;;;9.40;99.90;;;;;;5030181;28;20260;-60
2024/03/05 04:03:07;;;;;;;20.87;14.67;;;9.30;99.90;;;;;;5032949;28;20248;-60
2024/03/05 04:05:35;;;;;;;22.17;13.30;;;9.30;99.90;;;;;;5033186;28;20218;-60
2024/03/05 04:08:03;;;;;;;17.93;13.17;;;9.30;99.90;;;;;;5032682;28;20203;-60
2024/03/05 04:10:31;;;;;;;18.60;14.40;;;9.30;99.90;;;;;;5033161;28;20254;-59
2024/03/05 04:13:00;;;;;;;21.73;13.63;;;9.30;99.90;;;;;;5015512;28;20259;-60
2024/03/05 04:15:27;;;;;;;26.30;14.50;;;9.20;99.90;;;;;;5031252;28;20193;-60
2024/03/05 04:17:56;;;;;;;24.70;14.73;;;9.20;99.90;;;;;;5031062;28;20193;-60
2024/03/05 04:20:26;;;;;;;20.73;15.97;;;9.20;99.90;;;;;;5031851;28;20213;-60
2024/03/05 04:22:57;;;;;;;25.10;15.63;;;9.20;99.90;;;;;;5016954;28;20210;-60
2024/03/05 04:25:30;;;;;;;23.43;15.83;;;9.20;99.90;;;;;;5016791;28;20220;-60
2024/03/05 04:28:10;;;;;;;23.10;16.77;;;9.20;99.90;;;;;;5026444;28;20196;-60
2024/03/05 04:30:38;;;;;;;24.60;17.43;;;9.20;99.90;;;;;;5031078;28;20220;-60
2024/03/05 04:33:09;;;;;;;23.27;16.97;;;9.10;99.90;;;;;;5032761;28;20213;-60
2024/03/05 04:35:37;;;;;;;28.07;17.60;;;9.10;99.90;;;;;;5032205;28;20321;-60
2024/03/05 04:38:05;;;;;;;26.90;16.33;;;9.20;99.90;;;;;;5033301;28;20211;-60
2024/03/05 04:40:34;;;;;;;24.40;17.40;;;9.10;99.90;;;;;;5032137;28;20204;-60
2024/03/05 04:43:05;;;;;;;23.97;16.43;;;9.20;99.90;;;;;;5048330;28;20209;-60
2024/03/05 04:45:34;;;;;;;28.50;16.80;;;9.20;99.90;;;;;;5017992;28;20199;-60
2024/03/05 04:48:03;;;;;;;28.17;16.30;;;9.20;99.90;;;;;;5017204;28;20582;-60
2024/03/05 04:50:33;;;;;;;24.70;16.10;;;9.20;99.90;;;;;;5034518;28;20200;-60
2024/03/05 04:53:02;;;;;;;22.57;15.73;;;9.10;99.90;;;;;;5032535;28;20654;-60
2024/03/05 04:55:29;;;;;;;23.67;15.37;;;9.10;99.90;;;;;;5033555;28;20234;-60
2024/03/05 04:57:57;;;;;;;23.43;16.00;;;9.10;99.90;;;;;;5031175;28;20619;-60
2024/03/05 05:00:24;;;;;;;26.80;17.10;;;9.10;99.90;;;;;;5029260;28;20208;-60
2024/03/05 05:02:52;;;;;;;25.10;15.03;;;9.10;99.90;;;;;;5028328;28;20194;-60
2024/03/05 05:05:24;;;;;;;21.50;14.57;;;9.10;99.90;;;;;;5032722;28;20212;-60
2024/03/05 05:08:01;;;;;;;26.13;13.73;;;9.10;99.90;;;;;;5034168;28;20629;-60
2024/03/05 05:10:31;;;;;;;19.80;13.30;;;9.10;99.90;;;;;;5043730;28;20248;-60
2024/03/05 05:13:00;;;;;;;17.90;12.83;;;9.00;99.90;;;;;;5031892;28;20193;-60
2024/03/05 05:15:28;;;;;;;17.30;12.70;;;9.00;99.90;;;;;;5030228;28;20213;-60
2024/03/05 05:17:58;;;;;;;23.33;11.67;;;9.00;99.90;;;;;;5031238;28;20193;-60
2024/03/05 05:20:27;;;;;;;21.20;12.83;;;9.00;99.90;;;;;;5043190;28;20214;-60
2024/03/05 05:22:54;;;;;;;17.03;11.57;;;9.00;99.90;;;;;;5031970;28;20191;-60
2024/03/05 05:25:23;;;;;;;17.27;12.27;;;9.00;99.90;;;;;;5032301;28;20234;-60
2024/03/05 05:27:52;;;;;;;18.03;11.13;;;9.10;99.90;;;;;;5030784;28;20206;-60
2024/03/05 05:30:21;;;;;;;19.40;11.50;;;9.10;99.90;;;;;;5032064;28;20209;-60
2024/03/05 05:32:49;;;;;;;19.57;12.13;;;9.10;99.90;;;;;;5031386;28;20226;-60
2024/03/05 05:35:18;;;;;;;19.30;12.50;;;9.10;99.90;;;;;;5032007;28;20321;-60
2024/03/05 05:37:47;;;;;;;22.80;13.20;;;9.10;99.90;;;;;;5028888;28;20289;-60
2024/03/05 05:40:16;;;;;;;19.90;12.33;;;9.10;99.90;;;;;;5031078;28;20227;-60
2024/03/05 05:42:50;;;;;;;23.77;12.57;;;9.10;99.90;;;;;;5028828;28;20571;-61
2024/03/05 05:45:21;;;;;;;21.43;13.23;;;9.10;99.90;;;;;;5014041;28;20209;-60
2024/03/05 05:47:51;;;;;;;23.43;13.27;;;9.20;99.90;;;;;;5028463;28;20271;-61
2024/03/05 05:50:22;;;;;;;20.00;12.17;;;9.20;99.90;;;;;;5029371;28;20216;-61
2024/03/05 05:52:55;;;;;;;24.10;14.30;;;9.20;99.90;;;;;;5030294;28;20218;-60
2024/03/05 05:55:26;;;;;;;21.90;13.87;;;9.20;99.90;;;;;;5027743;28;20693;-61
2024/03/05 05:57:56;;;;;;;26.50;13.87;;;9.20;99.90;;;;;;5028893;28;20223;-61
2024/03/05 06:00:39;;;;;;;21.57;14.63;;;9.20;99.90;;;;;;5029770;28;20221;-60
2024/03/05 06:03:08;;;;;;;25.83;13.80;;;9.20;99.90;;;;;;5028764;28;20739;-61
2024/03/05 06:05:36;;;;;;;18.33;12.77;;;9.20;99.90;;;;;;5033230;28;20213;-60
2024/03/05 06:08:10;;;;;;;22.17;13.47;;;9.20;99.90;;;;;;5027808;28;20201;-60
2024/03/05 06:10:41;;;;;;;21.93;13.03;;;9.20;99.90;;;;;;5048072;28;20294;-60
2024/03/05 06:13:10;;;;;;;18.83;13.47;;;9.20;99.90;;;;;;5035011;28;20202;-60
2024/03/05 06:15:38;;;;;;;19.23;13.40;;;9.20;99.90;;;;;;5018071;28;20219;-60
2024/03/05 06:18:07;;;;;;;32.13;14.30;;;9.30;99.90;;;;;;5032548;28;20694;-60
2024/03/05 06:20:36;;;;;;;21.70;13.13;;;9.30;99.90;;;;;;5033586;28;20527;-60
2024/03/05 06:23:04;;;;;;;22.30;14.63;;;9.40;99.90;;;;;;5034693;28;20267;-60
2024/03/05 06:25:32;;;;;;;21.20;13.17;;;9.50;99.90;;;;;;5034965;28;20675;-60
2024/03/05 06:27:59;;;;;;;22.20;13.87;;;9.70;99.90;;;;;;5034936;28;20644;-60
2024/03/05 06:30:28;;;;;;;20.30;13.67;;;9.80;99.90;;;;;;5018118;28;20652;-60
2024/03/05 06:32:57;;;;;;;18.90;12.83;;;9.90;99.90;;;;;;5034089;28;20307;-59
2024/03/05 06:35:28;;;;;;;17.20;12.50;;;10.00;99.90;;;;;;5034728;28;20253;-59
2024/03/05 06:37:58;;;;;;;20.80;12.40;;;10.10;99.90;;;;;;5017682;28;20215;-60
2024/03/05 06:40:26;;;;;;;17.10;12.73;;;10.30;99.90;;;;;;5032380;28;20544;-60
2024/03/05 06:43:03;;;;;;;16.13;12.10;;;10.40;99.90;;;;;;5049958;28;20205;-59
2024/03/05 06:45:36;;;;;;;18.27;12.40;;;10.50;99.90;;;;;;5017644;28;20692;-60
2024/03/05 06:48:08;;;;;;;20.03;11.97;;;10.50;99.90;;;;;;5033124;28;20634;-60
2024/03/05 06:50:44;;;;;;;20.23;12.97;;;10.60;99.90;;;;;;5033498;28;20206;-60
2024/03/05 06:58:48;;;;;;;15.70;11.73;;;10.70;99.90;;;;;;5032871;28;20203;-60
2024/03/05 07:01:19;;;;;;;16.37;12.67;;;10.70;99.90;;;;;;5029768;28;20201;-60
2024/03/05 07:03:49;;;;;;;17.70;12.87;;;10.80;99.90;;;;;;5033411;28;20207;-60
2024/03/05 07:06:18;;;;;;;16.57;12.93;;;10.80;99.90;;;;;;5033267;28;20214;-60
2024/03/05 07:08:48;;;;;;;19.37;13.27;;;10.90;99.90;;;;;;5033567;28;20298;-60
2024/03/05 07:11:17;;;;;;;18.00;13.20;;;10.90;99.90;;;;;;5034020;28;20225;-60
2024/03/05 07:13:47;;;;;;;18.57;12.37;;;11.00;99.90;;;;;;5032697;28;20222;-60
2024/03/05 07:16:18;;;;;;;13.70;10.93;;;11.00;99.90;;;;;;5020210;28;20213;-61
2024/03/05 07:18:53;;;;;;;17.07;12.77;;;11.10;99.90;;;;;;5031967;28;20632;-60
2024/03/05 07:21:22;;;;;;;17.50;11.23;;;11.20;99.90;;;;;;5030714;28;20576;-59
2024/03/05 07:23:51;;;;;;;18.17;10.87;;;11.30;99.90;;;;;;5018314;28;20651;-60
2024/03/05 07:26:21;;;;;;;13.93;9.83;;;11.40;99.90;;;;;;5034194;28;20276;-60
2024/03/05 07:28:49;;;;;;;14.93;9.37;;;11.60;99.90;;;;;;5032267;28;20212;-60
2024/03/05 07:31:18;;;;;;;15.47;8.97;;;11.70;99.90;;;;;;5033825;28;20222;-59
2024/03/05 07:33:47;;;;;;;17.50;10.27;;;11.90;99.90;;;;;;5034262;28;20640;-59
2024/03/05 07:36:20;;;;;;;18.13;8.40;;;12.00;99.90;;;;;;5032449;28;20213;-59
2024/03/05 07:38:48;;;;;;;12.00;7.67;;;12.20;99.90;;;;;;5024318;28;20211;-59
2024/03/05 07:41:17;;;;;;;12.83;6.33;;;12.20;99.90;;;;;;5033420;28;20213;-60
2024/03/05 07:44:00;;;;;;;10.10;6.77;;;12.40;99.90;;;;;;5017647;28;20206;-60
2024/03/05 07:46:29;;;;;;;10.93;7.03;;;12.50;99.90;;;;;;5032580;28;20218;-60
2024/03/05 07:48:58;;;;;;;10.27;6.20;;;12.60;99.90;;;;;;5031019;28;20268;-59
2024/03/05 07:51:26;;;;;;;9.57;6.53;;;12.70;99.90;;;;;;5034990;28;20222;-59
2024/03/05 07:54:01;;;;;;;10.47;7.00;;;12.90;99.90;;;;;;5033348;28;20195;-60
2024/03/05 07:56:28;;;;;;;11.33;6.00;;;13.00;99.90;;;;;;5016295;28;20248;-59
2024/03/05 07:58:56;;;;;;;14.67;6.00;;;13.10;99.90;;;;;;5033403;28;20207;-59
2024/03/05 08:01:24;;;;;;;12.10;5.50;;;13.30;99.90;;;;;;5032075;28;20203;-60
2024/03/05 08:03:54;;;;;;;6.77;5.63;;;13.40;99.90;;;;;;5032067;28;20218;-60
2024/03/05 08:06:23;;;;;;;9.87;5.97;;;13.60;99.90;;;;;;5017871;28;20648;-59
2024/03/05 08:08:52;;;;;;;5.90;5.30;;;13.70;99.80;;;;;;5024338;28;20229;-59
2024/03/05 08:11:21;;;;;;;10.60;5.47;;;13.90;99.50;;;;;;5026290;28;20218;-60
2024/03/05 08:13:49;;;;;;;10.37;5.23;;;14.00;99.60;;;;;;5030720;28;20199;-60
2024/03/05 08:16:18;;;;;;;7.50;5.10;;;14.20;99.10;;;;;;5030294;28;20207;-60
2024/03/05 08:18:46;;;;;;;6.30;5.17;;;14.30;98.80;;;;;;5013354;28;20291;-60
2024/03/05 08:21:13;;;;;;;7.73;4.80;;;14.50;98.60;;;;;;5031790;28;20199;-60
2024/03/05 08:23:41;;;;;;;11.10;4.93;;;14.70;98.40;;;;;;5049351;28;20605;-60
2024/03/05 08:26:11;;;;;;;10.70;5.00;;;14.80;98.30;;;;;;5031136;28;20232;-60
2024/03/05 08:28:40;;;;;;;13.67;5.70;;;14.90;98.20;;;;;;5030904;28;20210;-60
2024/03/05 08:31:10;;;;;;;8.47;5.33;;;15.00;98.00;;;;;;5031962;28;20208;-60
2024/03/05 08:33:37;;;;;;;6.83;5.57;;;15.20;97.80;;;;;;5029305;28;20209;-60
2024/03/05 08:36:06;;;;;;;10.37;5.00;;;15.30;97.60;;;;;;5031937;28;20258;-60
2024/03/05 08:38:35;;;;;;;8.87;5.17;;;15.50;97.50;;;;;;5031981;28;20214;-60
2024/03/05 08:41:03;;;;;;;5.87;4.83;;;15.60;97.10;;;;;;5031757;28;20198;-60
2024/03/05 08:43:34;;;;;;;6.77;4.80;;;15.70;96.60;;;;;;5032394;28;20279;-60
2024/03/05 08:46:04;;;;;;;10.23;5.10;;;15.80;96.20;;;;;;5022346;28;20205;-60
2024/03/05 08:48:31;;;;;;;8.60;4.90;;;15.90;96.20;;;;;;5029918;28;20283;-60
2024/03/05 08:51:00;;;;;;;12.20;4.73;;;16.00;95.90;;;;;;5016331;28;20208;-60
2024/03/05 08:53:29;;;;;;;6.33;4.70;;;16.10;95.60;;;;;;5031338;28;20240;-60
2024/03/05 08:55:56;;;;;;;5.10;4.40;;;16.20;95.40;;;;;;5031405;28;20310;-60
2024/03/05 08:58:25;;;;;;;7.43;4.80;;;16.30;95.30;;;;;;5030794;28;20223;-60
2024/03/05 09:00:55;;;;;;;9.93;4.60;;;16.40;95.30;;;;;;5014950;28;20210;-60
2024/03/05 09:03:24;;;;;;;7.57;4.87;;;16.50;95.00;;;;;;4992616;28;20211;-60
2024/03/05 09:05:53;;;;;;;7.17;4.63;;;16.60;94.80;;;;;;5015414;28;20292;-60
2024/03/05 09:08:22;;;;;;;10.03;4.53;;;16.60;94.70;;;;;;5015552;28;20210;-60
2024/03/05 09:10:51;;;;;;;5.40;4.20;;;16.70;93.20;;;;;;5028664;28;20229;-60
2024/03/05 09:13:21;;;;;;;7.63;5.70;;;16.50;92.30;;;;;;5024269;28;20223;-60
2024/03/05 09:15:49;;;;;;;6.77;4.47;;;16.40;92.20;;;;;;5014269;28;20213;-60
2024/03/05 09:18:20;;;;;;;9.37;4.13;;;16.30;92.90;;;;;;5012110;28;20714;-60
2024/03/05 09:20:47;;;;;;;8.07;4.70;;;16.30;93.50;;;;;;5028131;28;20517;-60
2024/03/05 09:23:19;;;;;;;6.63;4.90;;;16.40;92.70;;;;;;5030713;28;20219;-60
2024/03/05 09:25:47;;;;;;;9.40;5.40;;;16.40;92.40;;;;;;5031421;28;20207;-60
2024/03/05 09:28:16;;;;;;;6.27;4.43;;;16.40;92.90;;;;;;5014826;28;20218;-60
2024/03/05 09:30:45;;;;;;;9.33;3.90;;;16.50;93.10;;;;;;5015010;28;20208;-60
2024/03/05 09:33:15;;;;;;;7.37;4.20;;;16.60;92.90;;;;;;5031128;28;20244;-60
2024/03/05 09:35:44;;;;;;;5.27;3.60;;;16.60;92.50;;;;;;5015119;28;20247;-60
2024/03/05 09:38:13;;;;;;;8.40;4.43;;;16.70;93.00;;;;;;5032159;28;20217;-60
2024/03/05 09:40:42;;;;;;;5.17;4.50;;;16.80;93.10;;;;;;5032910;28;20201;-60
2024/03/05 09:43:13;;;;;;;5.30;3.83;;;16.90;92.20;;;;;;5019810;28;20222;-60
2024/03/05 09:45:44;;;;;;;7.70;4.07;;;16.90;91.60;;;;;;5017682;28;20686;-60
2024/03/05 09:48:17;;;;;;;6.10;3.30;;;16.90;91.90;;;;;;5048749;28;20277;-60
2024/03/05 09:50:49;;;;;;;5.20;3.73;;;17.00;92.00;;;;;;5050056;28;20301;-60
2024/03/05 09:53:18;;;;;;;4.57;3.87;;;17.00;92.00;;;;;;5030847;28;20219;-60
2024/03/05 09:55:53;;;;;;;7.30;3.77;;;17.10;92.10;;;;;;5018294;28;20214;-60
2024/03/05 09:58:42;;;;;;;5.80;3.27;;;17.20;91.50;;;;;;5029097;28;20213;-60
2024/03/05 10:01:12;;;;;;;7.90;3.33;;;17.30;91.10;;;;;;5013695;28;20637;-60
2024/03/05 10:03:41;;;;;;;6.60;4.03;;;17.30;91.30;;;;;;5025503;28;20218;-63
2024/03/05 10:06:14;;;;;;;8.37;3.47;;;17.40;91.60;;;;;;5029783;28;20322;-60
2024/03/05 10:08:42;;;;;;;5.50;4.30;;;17.50;91.80;;;;;;5043737;28;20210;-60
2024/03/05 10:11:12;;;;;;;7.80;4.03;;;17.60;91.80;;;;;;5018883;28;20216;-62
2024/03/05 10:13:41;;;;;;;7.87;3.70;;;17.70;91.30;;;;;;5018828;28;20224;-60
2024/03/05 10:16:23;;;;;;;4.23;3.63;;;17.80;90.30;;;;;;5032766;28;20287;-60
2024/03/05 10:18:52;;;;;;;6.27;4.03;;;17.80;90.50;;;;;;5031497;28;20191;-60
2024/03/05 10:21:22;;;;;;;8.40;4.93;;;17.80;90.40;;;;;;5033321;28;20519;-60
2024/03/05 10:24:05;;;;;;;7.50;3.90;;;17.80;90.80;;;;;;5031729;28;20331;-60
2024/03/05 10:26:35;;;;;;;6.00;3.70;;;17.90;90.50;;;;;;5033976;28;20203;-60
2024/03/05 10:29:08;;;;;;;5.20;3.37;;;17.90;90.10;;;;;;5029807;28;20209;-60
2024/03/05 10:31:45;;;;;;;5.53;3.43;;;17.90;90.90;;;;;;5002639;28;20309;-60
2024/03/05 10:34:18;;;;;;;5.43;3.47;;;17.90;90.80;;;;;;5019503;28;20243;-60
2024/03/05 10:36:47;;;;;;;6.00;3.70;;;18.10;91.00;;;;;;5031281;28;20195;-60
2024/03/05 10:39:17;;;;;;;6.50;3.50;;;18.20;90.90;;;;;;5010230;28;20202;-60
2024/03/05 10:41:48;;;;;;;3.90;3.50;;;18.30;90.60;;;;;;5034125;28;20202;-60
2024/03/05 10:44:19;;;;;;;5.50;4.03;;;18.40;89.00;;;;;;5016743;28;20268;-60
2024/03/05 10:46:49;;;;;;;8.37;3.93;;;18.40;88.30;;;;;;5031814;28;20213;-60
2024/03/05 10:49:19;;;;;;;5.50;3.60;;;18.30;87.30;;;;;;5049198;28;20691;-60
2024/03/05 10:51:50;;;;;;;4.90;3.30;;;18.20;86.70;;;;;;5016454;28;20196;-60
2024/03/05 10:54:19;;;;;;;7.33;3.93;;;18.00;88.10;;;;;;5017209;28;20202;-60
2024/03/05 10:56:51;;;;;;;5.30;3.33;;;18.10;89.10;;;;;;5050575;28;20261;-60
2024/03/05 10:59:33;;;;;;;8.37;3.13;;;18.10;90.10;;;;;;5018931;28;20207;-60
2024/03/05 11:02:02;;;;;;;4.00;2.70;;;18.20;89.10;;;;;;5035065;28;20519;-61
2024/03/05 11:04:32;;;;;;;4.70;3.20;;;18.30;85.80;;;;;;5034010;28;20233;-59
2024/03/05 11:07:05;;;;;;;4.93;2.70;;;18.20;86.10;;;;;;5034626;28;20349;-60
2024/03/05 11:09:35;;;;;;;4.03;2.77;;;18.10;87.20;;;;;;5035108;28;20197;-59
2024/03/05 11:12:16;;;;;;;5.33;3.27;;;18.30;88.50;;;;;;5034136;28;20254;-60
2024/03/05 11:14:46;;;;;;;6.53;2.90;;;18.40;89.00;;;;;;5029320;28;20198;-59
2024/03/05 11:17:16;;;;;;;6.80;3.17;;;18.50;88.50;;;;;;5017434;28;20293;-60
2024/03/05 11:19:44;;;;;;;9.27;3.40;;;18.70;87.40;;;;;;5033626;28;20205;-61
2024/03/05 11:22:23;;;;;;;2.90;2.40;;;18.80;86.60;;;;;;5011885;28;20206;-61
2024/03/05 11:25:01;;;;;;;5.70;2.87;;;18.80;85.50;;;;;;5034466;28;20211;-61
2024/03/05 11:27:30;;;;;;;3.00;2.70;;;18.90;84.70;;;;;;5032039;28;20199;-60
2024/03/05 11:30:12;;;;;;;3.57;2.30;;;18.80;85.20;;;;;;5032561;28;20203;-61
2024/03/05 11:32:40;;;;;;;5.70;2.23;;;18.80;86.10;;;;;;5033332;28;20308;-62
2024/03/05 11:35:10;;;;;;;4.83;2.20;;;18.80;84.80;;;;;;5045395;28;20699;-62
2024/03/05 11:37:58;;;;;;;5.70;2.27;;;18.80;84.60;;;;;;5032490;28;20233;-63
2024/03/05 11:40:34;;;;;;;5.33;2.60;;;19.00;85.10;;;;;;5017422;28;20210;-60
2024/03/05 11:43:04;;;;;;;5.37;2.67;;;18.90;83.20;;;;;;5031321;28;20197;-61
2024/03/05 11:45:48;;;;;;;4.17;1.90;;;18.90;83.20;;;;;;5033947;28;20229;-62
2024/03/05 11:48:23;;;;;;;6.03;2.63;;;18.90;84.40;;;;;;5033186;28;20217;-59
2024/03/05 11:50:54;;;;;;;3.40;1.57;;;19.00;83.80;;;;;;5046418;28;20211;-60
2024/03/05 11:53:22;;;;;;;7.67;2.23;;;19.00;82.80;;;;;;5033539;28;20228;-60
2024/03/05 11:55:52;;;;;;;2.77;1.70;;;19.10;84.00;;;;;;5032249;28;20200;-60
2024/03/05 11:58:24;;;;;;;3.80;1.77;;;19.20;82.40;;;;;;5030079;28;20615;-59
2024/03/05 12:01:00;;;;;;;3.70;1.83;;;19.30;82.90;;;;;;5031792;28;20617;-60
2024/03/05 12:03:28;;;;;;;5.83;1.90;;;19.40;83.30;;;;;;5026476;28;20222;-60
2024/03/05 12:05:56;;;;;;;6.07;2.10;;;19.50;83.30;;;;;;5033823;28;20203;-60
2024/03/05 12:08:24;;;;;;;3.43;1.40;;;19.60;82.50;;;;;;5027531;28;20213;-60
2024/03/05 12:11:01;;;;;;;2.17;1.50;;;19.70;82.40;;;;;;5029537;28;20263;-59
2024/03/05 12:13:31;;;;;;;3.17;1.73;;;19.70;82.80;;;;;;5044727;28;20297;-62
2024/03/05 12:16:11;;;;;;;4.40;1.97;;;19.90;82.80;;;;;;5029268;28;20197;-61
2024/03/05 12:18:39;;;;;;;4.30;1.70;;;19.90;82.00;;;;;;5033891;28;20206;-60
2024/03/05 12:21:07;;;;;;;5.90;2.13;;;19.90;81.90;;;;;;5030677;28;20205;-61
2024/03/05 12:23:35;;;;;;;3.30;1.77;;;20.00;79.90;;;;;;5031390;28;20583;-61
2024/03/05 12:26:10;;;;;;;4.50;2.20;;;19.90;78.50;;;;;;5030290;28;20242;-60
2024/03/05 12:28:37;;;;;;;4.10;2.03;;;19.90;79.60;;;;;;5032751;28;20203;-61
2024/03/05 12:31:04;;;;;;;3.60;1.90;;;19.90;80.30;;;;;;5016207;28;20294;-62
2024/03/05 12:33:31;;;;;;;3.27;2.00;;;19.90;79.90;;;;;;5034757;28;20218;-62
2024/03/05 12:35:59;;;;;;;4.20;2.77;;;19.90;78.60;;;;;;5032291;28;20309;-62
2024/03/05 12:38:32;;;;;;;2.27;2.03;;;19.80;77.10;;;;;;5032413;28;20284;-60
2024/03/05 12:41:00;;;;;;;4.60;2.37;;;19.60;77.80;;;;;;5032825;28;20203;-60
2024/03/05 12:43:28;;;;;;;3.87;1.97;;;19.60;78.70;;;;;;5031891;28;20671;-61
2024/03/05 12:46:03;;;;;;;4.33;2.07;;;19.60;79.60;;;;;;5030809;28;20279;-61
2024/03/05 12:48:34;;;;;;;6.70;2.27;;;19.60;80.00;;;;;;5016543;28;20203;-60
2024/03/05 12:51:03;;;;;;;3.63;2.40;;;19.60;80.50;;;;;;5030333;28;20211;-61
2024/03/05 12:53:31;;;;;;;5.70;2.13;;;19.60;81.00;;;;;;5031154;28;20229;-60
2024/03/05 12:56:02;;;;;;;4.03;2.17;;;19.60;81.10;;;;;;5030976;28;20577;-61